sensor_id;sensor_type;location;lat;lon;timestamp;P1;durP1;ratioP1;P2;durP2;ratioP2
29774;SDS011;16676;51.202;6.774;2023-08-30T00:03:14;11.55;;;7.32;;
29774;SDS011;16676;51.202;6.774;2023-08-30T00:07:17;11.27;;;8.77;;
29774;SDS011;16676;51.202;6.774;2023-08-30T00:11:19;9.15;;;8.10;;
29774;SDS011;16676;51.202;6.774;2023-08-30T00:15:21;12.65;;;9.40;;
29774;SDS011;16676;51.202;6.774;2023-08-30T00:19:23;10.30;;;8.65;;
29774;SDS011;16676;51.202;6.774;2023-08-30T00:23:26;13.52;;;9.20;;
29774;SDS011;16676;51.202;6.774;2023-08-30T00:27:28;12.65;;;9.57;;
29774;SDS011;16676;51.202;6.774;2023-08-30T00:31:30;8.75;;;7.80;;
29774;SDS011;16676;51.202;6.774;2023-08-30T00:35:32;11.82;;;8.23;;
29774;SDS011;16676;51.202;6.774;2023-08-30T00:39:35;8.55;;;6.15;;
29774;SDS011;16676;51.202;6.774;2023-08-30T00:43:38;7.43;;;5.45;;
29774;SDS011;16676;51.202;6.774;2023-08-30T00:47:40;6.95;;;4.63;;
29774;SDS011;16676;51.202;6.774;2023-08-30T00:51:43;5.13;;;4.25;;
29774;SDS011;16676;51.202;6.774;2023-08-30T00:55:46;5.28;;;4.20;;
29774;SDS011;16676;51.202;6.774;2023-08-30T00:59:48;6.82;;;4.15;;
29774;SDS011;16676;51.202;6.774;2023-08-30T01:03:52;5.97;;;4.53;;
29774;SDS011;16676;51.202;6.774;2023-08-30T01:07:54;6.50;;;4.68;;
29774;SDS011;16676;51.202;6.774;2023-08-30T01:12:00;5.53;;;3.78;;
29774;SDS011;16676;51.202;6.774;2023-08-30T01:16:04;7.85;;;3.67;;
29774;SDS011;16676;51.202;6.774;2023-08-30T01:20:07;5.10;;;3.38;;
29774;SDS011;16676;51.202;6.774;2023-08-30T01:24:15;5.18;;;3.35;;
29774;SDS011;16676;51.202;6.774;2023-08-30T01:28:26;6.88;;;3.95;;
29774;SDS011;16676;51.202;6.774;2023-08-30T01:32:31;8.82;;;5.18;;
29774;SDS011;16676;51.202;6.774;2023-08-30T01:36:36;8.35;;;5.25;;
29774;SDS011;16676;51.202;6.774;2023-08-30T01:40:39;7.30;;;5.63;;
29774;SDS011;16676;51.202;6.774;2023-08-30T01:44:44;7.15;;;5.15;;
29774;SDS011;16676;51.202;6.774;2023-08-30T01:48:46;10.52;;;6.35;;
29774;SDS011;16676;51.202;6.774;2023-08-30T01:52:49;9.43;;;6.93;;
29774;SDS011;16676;51.202;6.774;2023-08-30T01:56:52;11.57;;;6.22;;
29774;SDS011;16676;51.202;6.774;2023-08-30T02:00:55;9.60;;;6.57;;
29774;SDS011;16676;51.202;6.774;2023-08-30T02:04:58;8.77;;;6.78;;
29774;SDS011;16676;51.202;6.774;2023-08-30T02:09:01;10.13;;;5.93;;
29774;SDS011;16676;51.202;6.774;2023-08-30T02:13:15;14.45;;;7.25;;
29774;SDS011;16676;51.202;6.774;2023-08-30T02:17:20;11.65;;;6.63;;
29774;SDS011;16676;51.202;6.774;2023-08-30T02:21:23;8.50;;;5.90;;
29774;SDS011;16676;51.202;6.774;2023-08-30T02:25:25;9.25;;;5.97;;
29774;SDS011;16676;51.202;6.774;2023-08-30T02:29:27;9.65;;;5.55;;
29774;SDS011;16676;51.202;6.774;2023-08-30T02:33:31;8.43;;;5.32;;
29774;SDS011;16676;51.202;6.774;2023-08-30T02:37:32;8.25;;;4.78;;
29774;SDS011;16676;51.202;6.774;2023-08-30T02:41:34;6.43;;;4.20;;
29774;SDS011;16676;51.202;6.774;2023-08-30T02:45:36;5.72;;;3.85;;
29774;SDS011;16676;51.202;6.774;2023-08-30T02:49:40;7.40;;;3.45;;
29774;SDS011;16676;51.202;6.774;2023-08-30T02:53:41;8.30;;;3.10;;
29774;SDS011;16676;51.202;6.774;2023-08-30T02:57:43;7.13;;;3.13;;
29774;SDS011;16676;51.202;6.774;2023-08-30T03:01:46;7.20;;;3.30;;
29774;SDS011;16676;51.202;6.774;2023-08-30T03:05:49;6.00;;;2.95;;
29774;SDS011;16676;51.202;6.774;2023-08-30T03:09:51;6.68;;;2.92;;
29774;SDS011;16676;51.202;6.774;2023-08-30T03:13:53;7.05;;;3.58;;
29774;SDS011;16676;51.202;6.774;2023-08-30T03:17:56;4.78;;;2.88;;
29774;SDS011;16676;51.202;6.774;2023-08-30T03:22:00;5.10;;;3.03;;
29774;SDS011;16676;51.202;6.774;2023-08-30T03:26:07;5.40;;;3.42;;
29774;SDS011;16676;51.202;6.774;2023-08-30T03:30:11;4.82;;;3.13;;
29774;SDS011;16676;51.202;6.774;2023-08-30T03:34:13;7.32;;;3.72;;
29774;SDS011;16676;51.202;6.774;2023-08-30T03:38:17;5.75;;;3.95;;
29774;SDS011;16676;51.202;6.774;2023-08-30T03:42:19;5.22;;;3.78;;
29774;SDS011;16676;51.202;6.774;2023-08-30T03:46:21;6.22;;;3.30;;
29774;SDS011;16676;51.202;6.774;2023-08-30T03:50:23;5.65;;;3.08;;
29774;SDS011;16676;51.202;6.774;2023-08-30T03:54:26;8.00;;;4.15;;
29774;SDS011;16676;51.202;6.774;2023-08-30T03:58:28;6.25;;;3.50;;
29774;SDS011;16676;51.202;6.774;2023-08-30T04:02:30;5.57;;;2.92;;
29774;SDS011;16676;51.202;6.774;2023-08-30T04:06:32;4.38;;;2.65;;
29774;SDS011;16676;51.202;6.774;2023-08-30T04:10:35;3.95;;;2.50;;
29774;SDS011;16676;51.202;6.774;2023-08-30T04:14:38;4.90;;;2.63;;
29774;SDS011;16676;51.202;6.774;2023-08-30T04:18:40;8.38;;;4.03;;
29774;SDS011;16676;51.202;6.774;2023-08-30T04:22:42;7.90;;;4.88;;
29774;SDS011;16676;51.202;6.774;2023-08-30T04:26:45;7.15;;;5.25;;
29774;SDS011;16676;51.202;6.774;2023-08-30T04:30:52;6.68;;;4.70;;
29774;SDS011;16676;51.202;6.774;2023-08-30T04:34:54;8.45;;;4.95;;
29774;SDS011;16676;51.202;6.774;2023-08-30T04:38:56;8.32;;;5.90;;
29774;SDS011;16676;51.202;6.774;2023-08-30T04:43:00;12.35;;;6.15;;
29774;SDS011;16676;51.202;6.774;2023-08-30T04:47:02;7.80;;;4.57;;
29774;SDS011;16676;51.202;6.774;2023-08-30T04:51:04;8.45;;;4.90;;
29774;SDS011;16676;51.202;6.774;2023-08-30T04:55:06;7.20;;;4.82;;
29774;SDS011;16676;51.202;6.774;2023-08-30T04:59:10;10.23;;;6.57;;
29774;SDS011;16676;51.202;6.774;2023-08-30T05:03:12;10.20;;;6.13;;
29774;SDS011;16676;51.202;6.774;2023-08-30T05:07:14;7.75;;;5.63;;
29774;SDS011;16676;51.202;6.774;2023-08-30T05:11:16;12.25;;;7.10;;
29774;SDS011;16676;51.202;6.774;2023-08-30T05:15:19;9.77;;;6.65;;
29774;SDS011;16676;51.202;6.774;2023-08-30T05:19:21;11.18;;;7.72;;
29774;SDS011;16676;51.202;6.774;2023-08-30T05:23:23;10.25;;;7.80;;
29774;SDS011;16676;51.202;6.774;2023-08-30T05:27:25;12.07;;;8.05;;
29774;SDS011;16676;51.202;6.774;2023-08-30T05:31:28;11.88;;;9.02;;
29774;SDS011;16676;51.202;6.774;2023-08-30T05:35:30;18.15;;;9.02;;
29774;SDS011;16676;51.202;6.774;2023-08-30T05:39:32;11.35;;;9.13;;
29774;SDS011;16676;51.202;6.774;2023-08-30T05:43:35;16.50;;;8.95;;
29774;SDS011;16676;51.202;6.774;2023-08-30T05:47:38;14.23;;;8.63;;
29774;SDS011;16676;51.202;6.774;2023-08-30T05:51:40;18.20;;;8.90;;
29774;SDS011;16676;51.202;6.774;2023-08-30T05:55:42;12.52;;;8.50;;
29774;SDS011;16676;51.202;6.774;2023-08-30T05:59:44;12.80;;;8.63;;
29774;SDS011;16676;51.202;6.774;2023-08-30T06:03:47;11.85;;;7.45;;
29774;SDS011;16676;51.202;6.774;2023-08-30T06:07:49;12.77;;;8.25;;
29774;SDS011;16676;51.202;6.774;2023-08-30T06:11:51;13.25;;;9.05;;
29774;SDS011;16676;51.202;6.774;2023-08-30T06:15:53;12.70;;;7.85;;
29774;SDS011;16676;51.202;6.774;2023-08-30T06:19:56;13.75;;;8.68;;
29774;SDS011;16676;51.202;6.774;2023-08-30T06:23:58;10.80;;;8.50;;
29774;SDS011;16676;51.202;6.774;2023-08-30T06:28:00;14.25;;;7.72;;
29774;SDS011;16676;51.202;6.774;2023-08-30T06:32:03;14.93;;;8.52;;
29774;SDS011;16676;51.202;6.774;2023-08-30T06:36:07;12.80;;;7.65;;
29774;SDS011;16676;51.202;6.774;2023-08-30T06:40:11;13.80;;;8.30;;
29774;SDS011;16676;51.202;6.774;2023-08-30T06:44:13;11.35;;;8.07;;
29774;SDS011;16676;51.202;6.774;2023-08-30T06:48:15;10.70;;;7.22;;
29774;SDS011;16676;51.202;6.774;2023-08-30T06:52:19;9.20;;;6.65;;
29774;SDS011;16676;51.202;6.774;2023-08-30T06:56:21;9.52;;;7.20;;
29774;SDS011;16676;51.202;6.774;2023-08-30T07:00:23;10.00;;;6.38;;
29774;SDS011;16676;51.202;6.774;2023-08-30T07:04:25;12.63;;;8.05;;
29774;SDS011;16676;51.202;6.774;2023-08-30T07:08:28;9.95;;;8.02;;
29774;SDS011;16676;51.202;6.774;2023-08-30T07:12:30;14.60;;;7.82;;
29774;SDS011;16676;51.202;6.774;2023-08-30T07:16:32;12.93;;;7.40;;
29774;SDS011;16676;51.202;6.774;2023-08-30T07:20:34;10.48;;;7.05;;
29774;SDS011;16676;51.202;6.774;2023-08-30T07:24:38;9.82;;;6.78;;
29774;SDS011;16676;51.202;6.774;2023-08-30T07:28:40;10.07;;;7.22;;
29774;SDS011;16676;51.202;6.774;2023-08-30T07:32:43;12.88;;;7.75;;
29774;SDS011;16676;51.202;6.774;2023-08-30T07:36:45;17.00;;;8.52;;
29774;SDS011;16676;51.202;6.774;2023-08-30T07:40:48;13.38;;;8.98;;
29774;SDS011;16676;51.202;6.774;2023-08-30T07:44:50;12.25;;;9.35;;
29774;SDS011;16676;51.202;6.774;2023-08-30T07:48:52;12.02;;;7.53;;
29774;SDS011;16676;51.202;6.774;2023-08-30T07:52:54;10.85;;;7.40;;
29774;SDS011;16676;51.202;6.774;2023-08-30T07:56:57;9.85;;;6.70;;
29774;SDS011;16676;51.202;6.774;2023-08-30T08:00:59;9.35;;;5.78;;
29774;SDS011;16676;51.202;6.774;2023-08-30T08:05:01;10.68;;;5.32;;
29774;SDS011;16676;51.202;6.774;2023-08-30T08:09:04;8.80;;;5.43;;
29774;SDS011;16676;51.202;6.774;2023-08-30T08:13:09;8.25;;;5.10;;
29774;SDS011;16676;51.202;6.774;2023-08-30T08:17:13;9.57;;;4.95;;
29774;SDS011;16676;51.202;6.774;2023-08-30T08:21:14;8.02;;;5.30;;
29774;SDS011;16676;51.202;6.774;2023-08-30T08:25:16;13.73;;;4.63;;
29774;SDS011;16676;51.202;6.774;2023-08-30T08:29:20;8.55;;;4.43;;
29774;SDS011;16676;51.202;6.774;2023-08-30T08:33:21;7.63;;;4.38;;
29774;SDS011;16676;51.202;6.774;2023-08-30T08:37:24;6.75;;;3.67;;
29774;SDS011;16676;51.202;6.774;2023-08-30T08:41:26;6.15;;;3.60;;
29774;SDS011;16676;51.202;6.774;2023-08-30T08:45:38;5.47;;;3.53;;
29774;SDS011;16676;51.202;6.774;2023-08-30T08:49:40;6.00;;;3.78;;
29774;SDS011;16676;51.202;6.774;2023-08-30T08:53:42;7.28;;;3.72;;
29774;SDS011;16676;51.202;6.774;2023-08-30T08:57:45;9.15;;;3.50;;
29774;SDS011;16676;51.202;6.774;2023-08-30T09:01:50;6.78;;;3.50;;
29774;SDS011;16676;51.202;6.774;2023-08-30T09:05:53;5.75;;;2.70;;
29774;SDS011;16676;51.202;6.774;2023-08-30T09:09:55;3.72;;;2.50;;
29774;SDS011;16676;51.202;6.774;2023-08-30T09:13:57;6.53;;;2.78;;
29774;SDS011;16676;51.202;6.774;2023-08-30T09:18:01;4.97;;;2.47;;
29774;SDS011;16676;51.202;6.774;2023-08-30T09:22:03;6.30;;;2.75;;
29774;SDS011;16676;51.202;6.774;2023-08-30T09:26:05;3.70;;;2.30;;
29774;SDS011;16676;51.202;6.774;2023-08-30T09:30:07;6.63;;;2.42;;
29774;SDS011;16676;51.202;6.774;2023-08-30T09:34:12;4.72;;;2.30;;
29774;SDS011;16676;51.202;6.774;2023-08-30T09:38:18;5.40;;;2.63;;
29774;SDS011;16676;51.202;6.774;2023-08-30T09:42:20;4.00;;;2.42;;
29774;SDS011;16676;51.202;6.774;2023-08-30T09:46:23;7.47;;;2.90;;
29774;SDS011;16676;51.202;6.774;2023-08-30T09:50:26;6.10;;;2.88;;
29774;SDS011;16676;51.202;6.774;2023-08-30T09:54:30;10.13;;;3.30;;
29774;SDS011;16676;51.202;6.774;2023-08-30T09:58:36;7.85;;;3.22;;
29774;SDS011;16676;51.202;6.774;2023-08-30T10:02:40;5.97;;;3.17;;
29774;SDS011;16676;51.202;6.774;2023-08-30T10:06:45;3.53;;;2.33;;
29774;SDS011;16676;51.202;6.774;2023-08-30T10:10:48;4.15;;;2.30;;
29774;SDS011;16676;51.202;6.774;2023-08-30T10:14:51;6.38;;;2.80;;
29774;SDS011;16676;51.202;6.774;2023-08-30T10:18:54;5.72;;;2.70;;
29774;SDS011;16676;51.202;6.774;2023-08-30T10:23:06;4.72;;;2.45;;
29774;SDS011;16676;51.202;6.774;2023-08-30T10:27:11;5.47;;;2.90;;
29774;SDS011;16676;51.202;6.774;2023-08-30T10:31:14;6.47;;;2.67;;
29774;SDS011;16676;51.202;6.774;2023-08-30T10:35:18;10.30;;;2.67;;
29774;SDS011;16676;51.202;6.774;2023-08-30T10:39:27;5.30;;;2.20;;
29774;SDS011;16676;51.202;6.774;2023-08-30T10:43:34;5.05;;;2.35;;
29774;SDS011;16676;51.202;6.774;2023-08-30T10:47:38;5.00;;;2.50;;
29774;SDS011;16676;51.202;6.774;2023-08-30T10:51:40;6.93;;;2.10;;
29774;SDS011;16676;51.202;6.774;2023-08-30T11:00:08;3.72;;;1.80;;
29774;SDS011;16676;51.202;6.774;2023-08-30T11:04:19;4.65;;;2.13;;
29774;SDS011;16676;51.202;6.774;2023-08-30T11:08:22;3.97;;;2.03;;
29774;SDS011;16676;51.202;6.774;2023-08-30T11:12:28;5.82;;;2.25;;
29774;SDS011;16676;51.202;6.774;2023-08-30T11:16:31;6.00;;;2.25;;
29774;SDS011;16676;51.202;6.774;2023-08-30T11:20:34;5.65;;;2.22;;
29774;SDS011;16676;51.202;6.774;2023-08-30T11:24:36;3.63;;;2.00;;
29774;SDS011;16676;51.202;6.774;2023-08-30T11:28:40;4.47;;;2.10;;
29774;SDS011;16676;51.202;6.774;2023-08-30T11:32:46;5.78;;;2.30;;
29774;SDS011;16676;51.202;6.774;2023-08-30T11:36:48;5.82;;;2.10;;
29774;SDS011;16676;51.202;6.774;2023-08-30T11:40:51;6.85;;;2.22;;
29774;SDS011;16676;51.202;6.774;2023-08-30T11:44:54;5.03;;;2.55;;
29774;SDS011;16676;51.202;6.774;2023-08-30T11:48:56;5.03;;;2.40;;
29774;SDS011;16676;51.202;6.774;2023-08-30T11:52:58;8.45;;;2.30;;
29774;SDS011;16676;51.202;6.774;2023-08-30T11:57:00;4.68;;;1.95;;
29774;SDS011;16676;51.202;6.774;2023-08-30T12:01:04;3.65;;;2.00;;
29774;SDS011;16676;51.202;6.774;2023-08-30T12:05:10;4.55;;;1.73;;
29774;SDS011;16676;51.202;6.774;2023-08-30T12:09:12;3.47;;;1.90;;
29774;SDS011;16676;51.202;6.774;2023-08-30T12:13:22;2.95;;;1.90;;
29774;SDS011;16676;51.202;6.774;2023-08-30T12:17:25;2.33;;;1.73;;
29774;SDS011;16676;51.202;6.774;2023-08-30T12:21:27;5.18;;;2.05;;
29774;SDS011;16676;51.202;6.774;2023-08-30T12:25:29;2.95;;;2.22;;
29774;SDS011;16676;51.202;6.774;2023-08-30T12:29:32;2.15;;;1.40;;
29774;SDS011;16676;51.202;6.774;2023-08-30T12:33:36;2.30;;;1.80;;
29774;SDS011;16676;51.202;6.774;2023-08-30T12:37:40;2.92;;;1.80;;
29774;SDS011;16676;51.202;6.774;2023-08-30T12:41:43;2.53;;;1.70;;
29774;SDS011;16676;51.202;6.774;2023-08-30T12:45:45;2.60;;;1.90;;
29774;SDS011;16676;51.202;6.774;2023-08-30T12:49:49;3.15;;;1.92;;
29774;SDS011;16676;51.202;6.774;2023-08-30T12:53:51;4.40;;;1.50;;
29774;SDS011;16676;51.202;6.774;2023-08-30T12:57:53;2.35;;;1.88;;
29774;SDS011;16676;51.202;6.774;2023-08-30T13:01:55;3.92;;;1.73;;
29774;SDS011;16676;51.202;6.774;2023-08-30T13:05:58;3.35;;;1.27;;
29774;SDS011;16676;51.202;6.774;2023-08-30T13:10:00;4.10;;;1.73;;
29774;SDS011;16676;51.202;6.774;2023-08-30T13:14:02;2.63;;;1.30;;
29774;SDS011;16676;51.202;6.774;2023-08-30T13:18:04;2.00;;;1.27;;
29774;SDS011;16676;51.202;6.774;2023-08-30T13:22:08;2.33;;;0.90;;
29774;SDS011;16676;51.202;6.774;2023-08-30T13:26:10;2.40;;;1.30;;
29774;SDS011;16676;51.202;6.774;2023-08-30T13:30:12;1.92;;;1.20;;
29774;SDS011;16676;51.202;6.774;2023-08-30T13:34:14;2.97;;;1.30;;
29774;SDS011;16676;51.202;6.774;2023-08-30T13:38:17;1.67;;;1.23;;
29774;SDS011;16676;51.202;6.774;2023-08-30T13:42:19;2.65;;;1.45;;
29774;SDS011;16676;51.202;6.774;2023-08-30T13:46:22;1.92;;;1.10;;
29774;SDS011;16676;51.202;6.774;2023-08-30T13:50:24;3.05;;;1.10;;
29774;SDS011;16676;51.202;6.774;2023-08-30T13:54:31;1.98;;;1.10;;
29774;SDS011;16676;51.202;6.774;2023-08-30T13:58:33;1.92;;;0.98;;
29774;SDS011;16676;51.202;6.774;2023-08-30T14:02:37;4.32;;;1.33;;
29774;SDS011;16676;51.202;6.774;2023-08-30T14:06:39;1.85;;;1.33;;
29774;SDS011;16676;51.202;6.774;2023-08-30T14:10:42;3.25;;;1.27;;
29774;SDS011;16676;51.202;6.774;2023-08-30T14:14:44;2.22;;;1.20;;
29774;SDS011;16676;51.202;6.774;2023-08-30T14:18:46;3.30;;;1.40;;
29774;SDS011;16676;51.202;6.774;2023-08-30T14:22:48;1.48;;;1.23;;
29774;SDS011;16676;51.202;6.774;2023-08-30T14:26:51;3.70;;;1.33;;
29774;SDS011;16676;51.202;6.774;2023-08-30T14:30:53;1.45;;;1.05;;
29774;SDS011;16676;51.202;6.774;2023-08-30T14:34:55;2.08;;;1.10;;
29774;SDS011;16676;51.202;6.774;2023-08-30T14:38:57;1.63;;;1.33;;
29774;SDS011;16676;51.202;6.774;2023-08-30T14:43:00;3.53;;;1.55;;
29774;SDS011;16676;51.202;6.774;2023-08-30T14:47:03;2.72;;;1.75;;
29774;SDS011;16676;51.202;6.774;2023-08-30T14:51:05;2.58;;;1.80;;
29774;SDS011;16676;51.202;6.774;2023-08-30T14:55:07;2.38;;;1.70;;
29774;SDS011;16676;51.202;6.774;2023-08-30T14:59:11;4.15;;;2.00;;
29774;SDS011;16676;51.202;6.774;2023-08-30T15:03:13;3.55;;;1.85;;
29774;SDS011;16676;51.202;6.774;2023-08-30T15:07:15;3.05;;;1.85;;
29774;SDS011;16676;51.202;6.774;2023-08-30T15:11:17;5.55;;;1.90;;
29774;SDS011;16676;51.202;6.774;2023-08-30T15:15:21;2.65;;;1.80;;
29774;SDS011;16676;51.202;6.774;2023-08-30T15:19:23;2.35;;;1.77;;
29774;SDS011;16676;51.202;6.774;2023-08-30T15:23:25;4.70;;;1.70;;
29774;SDS011;16676;51.202;6.774;2023-08-30T15:27:27;4.10;;;2.22;;
29774;SDS011;16676;51.202;6.774;2023-08-30T15:31:30;4.97;;;1.90;;
29774;SDS011;16676;51.202;6.774;2023-08-30T15:35:32;3.15;;;2.03;;
29774;SDS011;16676;51.202;6.774;2023-08-30T15:39:37;3.50;;;2.30;;
29774;SDS011;16676;51.202;6.774;2023-08-30T15:43:39;5.63;;;2.45;;
29774;SDS011;16676;51.202;6.774;2023-08-30T15:47:42;3.05;;;2.20;;
29774;SDS011;16676;51.202;6.774;2023-08-30T15:51:44;3.28;;;1.98;;
29774;SDS011;16676;51.202;6.774;2023-08-30T15:55:46;5.57;;;2.30;;
29774;SDS011;16676;51.202;6.774;2023-08-30T15:59:48;3.58;;;2.35;;
29774;SDS011;16676;51.202;6.774;2023-08-30T16:03:51;3.45;;;2.13;;
29774;SDS011;16676;51.202;6.774;2023-08-30T16:07:53;4.65;;;2.47;;
29774;SDS011;16676;51.202;6.774;2023-08-30T16:11:55;6.03;;;2.47;;
29774;SDS011;16676;51.202;6.774;2023-08-30T16:15:57;3.60;;;2.08;;
29774;SDS011;16676;51.202;6.774;2023-08-30T16:20:01;5.65;;;2.90;;
29774;SDS011;16676;51.202;6.774;2023-08-30T16:24:04;3.95;;;2.17;;
29774;SDS011;16676;51.202;6.774;2023-08-30T16:28:07;3.95;;;2.20;;
29774;SDS011;16676;51.202;6.774;2023-08-30T16:32:09;6.93;;;2.45;;
29774;SDS011;16676;51.202;6.774;2023-08-30T16:36:12;4.47;;;2.53;;
29774;SDS011;16676;51.202;6.774;2023-08-30T16:40:14;7.18;;;2.95;;
29774;SDS011;16676;51.202;6.774;2023-08-30T16:44:16;8.32;;;2.80;;
29774;SDS011;16676;51.202;6.774;2023-08-30T16:48:18;3.58;;;2.22;;
29774;SDS011;16676;51.202;6.774;2023-08-30T16:52:22;4.75;;;2.60;;
29774;SDS011;16676;51.202;6.774;2023-08-30T16:56:24;5.80;;;2.80;;
29774;SDS011;16676;51.202;6.774;2023-08-30T17:00:26;6.70;;;2.55;;
29774;SDS011;16676;51.202;6.774;2023-08-30T17:04:28;4.53;;;2.50;;
29774;SDS011;16676;51.202;6.774;2023-08-30T17:08:32;6.38;;;2.70;;
29774;SDS011;16676;51.202;6.774;2023-08-30T17:12:34;6.57;;;2.85;;
29774;SDS011;16676;51.202;6.774;2023-08-30T17:16:36;6.90;;;2.63;;
29774;SDS011;16676;51.202;6.774;2023-08-30T17:20:39;6.25;;;2.38;;
29774;SDS011;16676;51.202;6.774;2023-08-30T17:24:42;4.47;;;2.00;;
29774;SDS011;16676;51.202;6.774;2023-08-30T17:28:44;4.45;;;1.85;;
29774;SDS011;16676;51.202;6.774;2023-08-30T17:32:46;9.63;;;2.72;;
29774;SDS011;16676;51.202;6.774;2023-08-30T17:36:48;4.47;;;1.85;;
29774;SDS011;16676;51.202;6.774;2023-08-30T17:40:55;8.93;;;2.55;;
29774;SDS011;16676;51.202;6.774;2023-08-30T17:44:57;12.57;;;3.10;;
29774;SDS011;16676;51.202;6.774;2023-08-30T17:48:59;13.27;;;3.67;;
29774;SDS011;16676;51.202;6.774;2023-08-30T17:53:01;22.17;;;4.82;;
29774;SDS011;16676;51.202;6.774;2023-08-30T17:57:07;16.55;;;4.15;;
29774;SDS011;16676;51.202;6.774;2023-08-30T18:01:10;16.60;;;4.68;;
29774;SDS011;16676;51.202;6.774;2023-08-30T18:05:12;25.73;;;8.20;;
29774;SDS011;16676;51.202;6.774;2023-08-30T18:09:14;21.77;;;8.73;;
29774;SDS011;16676;51.202;6.774;2023-08-30T18:13:18;22.23;;;8.30;;
29774;SDS011;16676;51.202;6.774;2023-08-30T18:17:20;15.23;;;8.20;;
29774;SDS011;16676;51.202;6.774;2023-08-30T18:21:22;18.02;;;7.13;;
29774;SDS011;16676;51.202;6.774;2023-08-30T18:25:24;13.98;;;6.32;;
29774;SDS011;16676;51.202;6.774;2023-08-30T18:29:27;11.32;;;5.70;;
29774;SDS011;16676;51.202;6.774;2023-08-30T18:33:29;13.63;;;5.22;;
29774;SDS011;16676;51.202;6.774;2023-08-30T18:37:35;9.80;;;4.53;;
29774;SDS011;16676;51.202;6.774;2023-08-30T18:41:37;8.55;;;3.63;;
29774;SDS011;16676;51.202;6.774;2023-08-30T18:45:44;8.05;;;3.03;;
29774;SDS011;16676;51.202;6.774;2023-08-30T18:49:47;6.47;;;2.50;;
29774;SDS011;16676;51.202;6.774;2023-08-30T18:53:49;6.00;;;2.22;;
29774;SDS011;16676;51.202;6.774;2023-08-30T18:57:51;6.57;;;2.13;;
29774;SDS011;16676;51.202;6.774;2023-08-30T19:01:54;4.78;;;1.80;;
29774;SDS011;16676;51.202;6.774;2023-08-30T19:05:56;4.05;;;1.75;;
29774;SDS011;16676;51.202;6.774;2023-08-30T19:09:59;4.47;;;1.58;;
29774;SDS011;16676;51.202;6.774;2023-08-30T19:14:01;5.43;;;1.85;;
29774;SDS011;16676;51.202;6.774;2023-08-30T19:18:08;3.75;;;1.80;;
29774;SDS011;16676;51.202;6.774;2023-08-30T19:22:10;5.10;;;2.17;;
29774;SDS011;16676;51.202;6.774;2023-08-30T19:26:12;3.95;;;1.90;;
29774;SDS011;16676;51.202;6.774;2023-08-30T19:30:13;5.13;;;1.85;;
29774;SDS011;16676;51.202;6.774;2023-08-30T19:34:17;5.10;;;1.95;;
29774;SDS011;16676;51.202;6.774;2023-08-30T19:38:19;5.65;;;2.10;;
29774;SDS011;16676;51.202;6.774;2023-08-30T19:42:21;5.25;;;1.90;;
29774;SDS011;16676;51.202;6.774;2023-08-30T19:46:26;5.63;;;2.17;;
29774;SDS011;16676;51.202;6.774;2023-08-30T19:50:30;7.32;;;2.00;;
29774;SDS011;16676;51.202;6.774;2023-08-30T19:54:32;4.85;;;1.77;;
29774;SDS011;16676;51.202;6.774;2023-08-30T19:58:34;3.33;;;1.70;;
29774;SDS011;16676;51.202;6.774;2023-08-30T20:02:36;3.28;;;1.40;;
29774;SDS011;16676;51.202;6.774;2023-08-30T20:06:39;5.80;;;1.77;;
29774;SDS011;16676;51.202;6.774;2023-08-30T20:10:41;7.32;;;1.50;;
29774;SDS011;16676;51.202;6.774;2023-08-30T20:14:43;3.75;;;1.27;;
29774;SDS011;16676;51.202;6.774;2023-08-30T20:18:45;6.50;;;1.95;;
29774;SDS011;16676;51.202;6.774;2023-08-30T20:22:49;4.88;;;1.60;;
29774;SDS011;16676;51.202;6.774;2023-08-30T20:26:51;6.35;;;1.67;;
29774;SDS011;16676;51.202;6.774;2023-08-30T20:30:53;4.28;;;1.58;;
29774;SDS011;16676;51.202;6.774;2023-08-30T20:34:55;4.70;;;1.42;;
29774;SDS011;16676;51.202;6.774;2023-08-30T20:39:00;4.80;;;1.48;;
29774;SDS011;16676;51.202;6.774;2023-08-30T20:43:03;4.05;;;1.80;;
29774;SDS011;16676;51.202;6.774;2023-08-30T20:47:05;4.32;;;1.33;;
29774;SDS011;16676;51.202;6.774;2023-08-30T20:51:07;6.90;;;1.85;;
29774;SDS011;16676;51.202;6.774;2023-08-30T20:55:10;4.95;;;1.52;;
29774;SDS011;16676;51.202;6.774;2023-08-30T20:59:13;3.33;;;1.50;;
29774;SDS011;16676;51.202;6.774;2023-08-30T21:03:18;4.80;;;1.63;;
29774;SDS011;16676;51.202;6.774;2023-08-30T21:07:21;3.85;;;1.40;;
29774;SDS011;16676;51.202;6.774;2023-08-30T21:11:24;4.82;;;1.67;;
29774;SDS011;16676;51.202;6.774;2023-08-30T21:15:26;3.58;;;1.42;;
29774;SDS011;16676;51.202;6.774;2023-08-30T21:19:28;4.85;;;1.40;;
29774;SDS011;16676;51.202;6.774;2023-08-30T21:23:30;2.95;;;1.10;;
29774;SDS011;16676;51.202;6.774;2023-08-30T21:27:33;3.15;;;1.30;;
29774;SDS011;16676;51.202;6.774;2023-08-30T21:31:35;4.75;;;1.65;;
29774;SDS011;16676;51.202;6.774;2023-08-30T21:35:37;7.63;;;1.77;;
29774;SDS011;16676;51.202;6.774;2023-08-30T21:39:39;3.28;;;1.40;;
29774;SDS011;16676;51.202;6.774;2023-08-30T21:43:45;2.80;;;1.15;;
29774;SDS011;16676;51.202;6.774;2023-08-30T21:47:47;3.38;;;1.40;;
29774;SDS011;16676;51.202;6.774;2023-08-30T21:51:50;4.32;;;1.40;;
29774;SDS011;16676;51.202;6.774;2023-08-30T21:55:51;3.80;;;1.30;;
29774;SDS011;16676;51.202;6.774;2023-08-30T21:59:55;3.28;;;1.60;;
29774;SDS011;16676;51.202;6.774;2023-08-30T22:03:57;3.50;;;1.40;;
29774;SDS011;16676;51.202;6.774;2023-08-30T22:07:59;3.40;;;1.30;;
29774;SDS011;16676;51.202;6.774;2023-08-30T22:12:01;4.00;;;1.30;;
29774;SDS011;16676;51.202;6.774;2023-08-30T22:16:05;3.58;;;1.20;;
29774;SDS011;16676;51.202;6.774;2023-08-30T22:20:07;5.38;;;1.30;;
29774;SDS011;16676;51.202;6.774;2023-08-30T22:24:10;6.40;;;1.60;;
29774;SDS011;16676;51.202;6.774;2023-08-30T22:28:12;3.40;;;1.30;;
29774;SDS011;16676;51.202;6.774;2023-08-30T22:32:15;4.22;;;1.20;;
29774;SDS011;16676;51.202;6.774;2023-08-30T22:36:17;2.58;;;1.13;;
29774;SDS011;16676;51.202;6.774;2023-08-30T22:40:19;3.83;;;1.33;;
29774;SDS011;16676;51.202;6.774;2023-08-30T22:44:22;5.32;;;1.42;;
29774;SDS011;16676;51.202;6.774;2023-08-30T22:48:25;3.53;;;1.15;;
29774;SDS011;16676;51.202;6.774;2023-08-30T22:52:28;3.17;;;1.40;;
29774;SDS011;16676;51.202;6.774;2023-08-30T22:56:37;2.83;;;1.02;;
29774;SDS011;16676;51.202;6.774;2023-08-30T23:00:41;2.42;;;1.10;;
29774;SDS011;16676;51.202;6.774;2023-08-30T23:04:44;2.25;;;1.05;;
29774;SDS011;16676;51.202;6.774;2023-08-30T23:08:46;4.18;;;1.45;;
29774;SDS011;16676;51.202;6.774;2023-08-30T23:12:48;3.33;;;1.38;;
29774;SDS011;16676;51.202;6.774;2023-08-30T23:16:51;3.95;;;1.25;;
29774;SDS011;16676;51.202;6.774;2023-08-30T23:20:54;2.55;;;1.15;;
29774;SDS011;16676;51.202;6.774;2023-08-30T23:24:56;3.10;;;1.17;;
29774;SDS011;16676;51.202;6.774;2023-08-30T23:28:58;4.45;;;1.50;;
29774;SDS011;16676;51.202;6.774;2023-08-30T23:33:00;3.65;;;1.17;;
29774;SDS011;16676;51.202;6.774;2023-08-30T23:37:03;3.40;;;1.27;;
29774;SDS011;16676;51.202;6.774;2023-08-30T23:41:07;4.00;;;1.30;;
29774;SDS011;16676;51.202;6.774;2023-08-30T23:45:09;6.07;;;1.90;;
29774;SDS011;16676;51.202;6.774;2023-08-30T23:49:13;5.68;;;1.33;;
29774;SDS011;16676;51.202;6.774;2023-08-30T23:53:17;3.55;;;1.25;;
29774;SDS011;16676;51.202;6.774;2023-08-30T23:57:19;4.10;;;1.40;;
